Time;durP1;ratioP1;P1;durP2;ratioP2;P2;SDS_P1;SDS_P2;PMS_P1;PMS_P2;Temp;Humidity;BMP_temperature;BMP_pressure;BME280_temperature;BME280_humidity;BME280_pressure;Samples;Min_cycle;Max_cycle;Signal;HPM_P1;HPM_P2
2021/09/19 00:00:28;;;;;;;5.70;2.65;;;;;;;13.94;76.69;98631.78;1705835;82;21064;-70
2021/09/19 00:02:55;;;;;;;3.35;2.50;;;;;;;13.92;76.57;98634.91;1729465;82;21691;-72
2021/09/19 00:05:22;;;;;;;5.70;2.67;;;;;;;13.91;76.59;98625.59;1728829;82;21072;-71
2021/09/19 00:07:48;;;;;;;3.80;2.62;;;;;;;13.82;76.71;98629.95;1730123;82;21515;-72
2021/09/19 00:10:17;;;;;;;3.40;2.17;;;;;;;13.72;77.04;98621.66;1726733;82;21043;-71
2021/09/19 00:12:46;;;;;;;3.67;2.05;;;;;;;13.61;77.40;98626.38;1727444;82;21627;-71
2021/09/19 00:15:20;;;;;;;4.03;2.60;;;;;;;13.54;77.62;98630.97;1729005;82;20995;-72
2021/09/19 00:17:51;;;;;;;2.77;2.12;;;;;;;13.51;77.94;98629.14;1725643;82;21003;-70
2021/09/19 00:20:19;;;;;;;3.85;2.70;;;;;;;13.55;78.12;98631.98;1726903;82;22193;-72
2021/09/19 00:22:52;;;;;;;4.75;2.72;;;;;;;13.59;78.13;98632.88;1725642;81;21003;-73
2021/09/19 00:25:19;;;;;;;2.98;2.50;;;;;;;13.65;78.07;98628.45;1726581;82;21031;-71
2021/09/19 00:27:46;;;;;;;3.55;2.52;;;;;;;13.68;77.91;98630.48;1708120;82;21016;-72
2021/09/19 00:30:14;;;;;;;6.62;2.90;;;;;;;13.72;77.82;98632.73;1699309;83;22184;-71
2021/09/19 00:32:42;;;;;;;6.00;2.83;;;;;;;13.74;77.69;98632.59;1723161;82;21517;-70
2021/09/19 00:35:10;;;;;;;3.87;2.52;;;;;;;13.77;77.55;98631.66;1721156;82;21028;-69
2021/09/19 00:37:40;;;;;;;3.77;2.10;;;;;;;13.78;77.38;98624.38;1728621;82;21028;-71
2021/09/19 00:40:12;;;;;;;2.70;2.02;;;;;;;13.79;77.24;98631.50;1726018;83;20974;-71
2021/09/19 00:42:39;;;;;;;2.37;2.15;;;;;;;13.79;77.07;98631.50;1723947;82;21016;-70
2021/09/19 00:45:11;;;;;;;4.65;2.67;;;;;;;13.80;77.03;98636.47;1727511;82;21956;-70
2021/09/19 00:47:38;;;;;;;5.62;2.40;;;;;;;13.80;76.96;98635.08;1702941;83;21011;-70
2021/09/19 00:50:09;;;;;;;6.33;2.60;;;;;;;13.81;76.91;98638.05;1722645;82;21635;-70
2021/09/19 00:52:38;;;;;;;3.65;2.67;;;;;;;13.81;76.91;98637.48;1722380;82;21081;-69
2021/09/19 00:55:06;;;;;;;3.35;2.20;;;;;;;13.82;76.83;98639.08;1725842;83;20983;-71
2021/09/19 00:57:40;;;;;;;3.67;2.25;;;;;;;13.85;76.92;98634.80;1780102;79;21973;-69
2021/09/19 01:00:11;;;;;;;3.17;2.25;;;;;;;13.85;76.96;98636.95;1780895;79;20954;-70
2021/09/19 01:02:38;;;;;;;7.47;2.55;;;;;;;13.83;77.08;98642.08;1761013;79;21027;-68
2021/09/19 01:05:12;;;;;;;2.83;2.22;;;;;;;13.82;77.26;98643.23;1784946;80;21036;-70
2021/09/19 01:07:41;;;;;;;4.20;2.10;;;;;;;13.81;77.32;98644.41;1785441;79;20995;-68
2021/09/19 01:10:11;;;;;;;3.50;2.40;;;;;;;13.79;77.41;98643.95;1777680;80;21028;-69
2021/09/19 01:12:41;;;;;;;3.25;2.15;;;;;;;13.79;77.47;98645.34;1786257;79;20975;-70
2021/09/19 01:15:09;;;;;;;4.60;2.40;;;;;;;13.77;77.58;98651.82;1761873;80;21092;-68
2021/09/19 01:17:40;;;;;;;4.28;2.22;;;;;;;13.74;77.68;98643.67;1781885;79;21024;-70
2021/09/19 01:20:13;;;;;;;3.45;2.30;;;;;;;13.71;77.82;98647.17;1766817;79;21503;-71
2021/09/19 01:22:42;;;;;;;3.27;2.15;;;;;;;13.69;77.97;98642.57;1755360;79;21453;-69
2021/09/19 01:25:14;;;;;;;3.33;2.10;;;;;;;13.68;78.10;98638.18;1788287;79;21557;-71
2021/09/19 01:27:47;;;;;;;3.95;2.58;;;;;;;13.66;78.24;98633.61;1751779;81;21010;-71
2021/09/19 01:30:13;;;;;;;9.83;2.58;;;;;;;13.63;78.41;98634.31;1744186;81;21097;-70
2021/09/19 01:32:40;;;;;;;3.60;2.40;;;;;;;13.60;78.58;98633.09;1717986;82;21264;-71
2021/09/19 01:35:09;;;;;;;4.85;2.65;;;;;;;13.49;78.86;98631.43;1738823;81;22098;-70
2021/09/19 01:37:35;;;;;;;5.15;2.37;;;;;;;13.37;79.30;98637.88;1733518;82;21077;-71
2021/09/19 01:40:05;;;;;;;7.25;2.87;;;;;;;13.26;79.66;98632.13;1733431;82;21086;-71
2021/09/19 01:42:35;;;;;;;3.40;2.77;;;;;;;13.17;80.11;98627.95;1710704;82;21028;-71
2021/09/19 01:45:06;;;;;;;8.33;3.30;;;;;;;13.12;80.49;98628.44;1734299;82;21068;-70
2021/09/19 01:47:35;;;;;;;5.05;3.40;;;;;;;13.11;80.80;98626.03;1713507;82;21095;-70
2021/09/19 01:50:04;;;;;;;5.22;3.08;;;;;;;13.14;81.02;98626.12;1734215;82;21047;-71
2021/09/19 01:52:32;;;;;;;5.35;3.37;;;;;;;13.18;81.02;98628.98;1737456;81;21079;-71
2021/09/19 01:55:03;;;;;;;7.00;3.60;;;;;;;13.20;81.03;98623.89;1734072;82;20980;-68
2021/09/19 01:57:32;;;;;;;7.05;3.55;;;;;;;13.19;81.13;98622.84;1714838;82;21483;-70
2021/09/19 02:00:06;;;;;;;5.50;3.37;;;;;;;13.15;81.32;98624.95;1731380;82;21114;-68
2021/09/19 02:02:40;;;;;;;5.30;3.25;;;;;;;13.19;81.49;98626.99;1734233;82;21043;-71
2021/09/19 02:05:08;;;;;;;6.67;2.95;;;;;;;13.23;81.36;98622.36;1734258;82;21582;-69
2021/09/19 02:07:40;;;;;;;5.17;2.47;;;;;;;13.26;81.27;98623.83;1725351;82;20978;-70
2021/09/19 02:10:12;;;;;;;5.85;3.27;;;;;;;13.31;81.16;98626.08;1730841;82;21537;-71
2021/09/19 02:12:40;;;;;;;3.12;2.58;;;;;;;13.29;81.12;98620.91;1734328;82;21467;-71
2021/09/19 02:15:10;;;;;;;6.35;2.80;;;;;;;13.22;81.15;98618.00;1714293;82;21038;-70
2021/09/19 02:17:37;;;;;;;3.02;2.33;;;;;;;13.15;81.29;98616.66;1734317;82;21540;-71
2021/09/19 02:20:10;;;;;;;4.03;2.92;;;;;;;13.12;81.45;98611.84;1717254;82;21014;-70
2021/09/19 02:22:39;;;;;;;4.72;2.47;;;;;;;13.13;81.51;98619.57;1729715;81;21534;-70
2021/09/19 02:25:08;;;;;;;3.75;2.58;;;;;;;13.18;81.62;98619.87;1733082;81;21515;-71
2021/09/19 02:27:39;;;;;;;;;;;;;;;13.22;81.55;98619.38;1749892;80;21457;-71
2021/09/19 02:30:09;;;;;;;3.47;2.20;;;;;;;13.24;81.39;98615.08;1756851;80;20226;-70
2021/09/19 02:32:38;;;;;;;4.00;2.15;;;;;;;13.27;81.32;98619.89;1789380;79;21052;-70
2021/09/19 02:35:07;;;;;;;3.83;2.50;;;;;;;13.25;81.31;98618.66;1794604;79;20964;-71
2021/09/19 02:37:39;;;;;;;2.67;2.27;;;;;;;13.19;81.35;98620.08;1789802;79;21054;-71
2021/09/19 02:40:09;;;;;;;4.72;2.47;;;;;;;13.12;81.45;98621.53;1798297;79;21010;-70
2021/09/19 02:42:36;;;;;;;3.35;2.22;;;;;;;13.05;81.55;98617.20;1796869;79;21033;-71
2021/09/19 02:45:07;;;;;;;3.50;2.15;;;;;;;13.02;81.66;98617.36;1798041;79;21537;-70
2021/09/19 02:47:35;;;;;;;2.72;2.12;;;;;;;13.05;81.76;98617.80;1797133;79;21053;-71
2021/09/19 02:50:05;;;;;;;4.97;2.20;;;;;;;13.08;81.81;98617.08;1778416;79;21788;-71
2021/09/19 02:52:33;;;;;;;2.95;2.10;;;;;;;13.13;81.84;98612.66;1797976;79;21583;-70
2021/09/19 02:55:03;;;;;;;2.95;2.12;;;;;;;13.13;81.75;98609.32;1776048;79;21033;-70
2021/09/19 02:57:31;;;;;;;3.22;2.08;;;;;;;13.07;81.80;98613.50;1754964;81;21024;-71
2021/09/19 02:59:58;;;;;;;2.83;1.70;;;;;;;13.01;81.93;98613.56;1752084;81;20989;-71
2021/09/19 03:02:27;;;;;;;3.20;1.90;;;;;;;12.96;82.04;98606.92;1754631;80;20984;-70
2021/09/19 03:04:55;;;;;;;2.55;1.80;;;;;;;12.95;82.19;98607.50;1707477;82;21126;-71
2021/09/19 03:07:21;;;;;;;2.67;2.17;;;;;;;12.95;82.37;98613.63;1725977;82;21062;-71
2021/09/19 03:09:50;;;;;;;2.37;1.82;;;;;;;12.98;82.55;98612.91;1709615;82;21493;-72
2021/09/19 03:12:16;;;;;;;5.12;2.60;;;;;;;13.03;82.61;98605.72;1729823;81;21488;-70
2021/09/19 03:14:45;;;;;;;3.35;2.62;;;;;;;13.08;82.63;98608.21;1733213;81;21132;-70
2021/09/19 03:17:15;;;;;;;3.72;1.92;;;;;;;13.14;82.55;98608.72;1729312;82;21004;-70
2021/09/19 03:19:43;;;;;;;3.98;2.30;;;;;;;13.20;82.46;98614.78;1726143;81;22097;-70
2021/09/19 03:22:10;;;;;;;5.40;2.50;;;;;;;13.24;82.25;98614.27;1709276;82;21005;-71
2021/09/19 03:24:42;;;;;;;2.98;2.40;;;;;;;13.27;82.09;98613.58;1732025;82;21043;-69
2021/09/19 03:27:10;;;;;;;3.27;2.22;;;;;;;13.31;82.01;98616.39;1729438;82;21151;-71
2021/09/19 03:29:42;;;;;;;3.87;2.33;;;;;;;13.33;81.92;98613.50;1729134;82;21087;-70
2021/09/19 03:32:12;;;;;;;3.72;2.47;;;;;;;13.36;81.80;98616.92;1730209;82;21000;-71
2021/09/19 03:34:43;;;;;;;3.02;2.12;;;;;;;13.38;81.61;98621.52;1728592;82;21054;-70
2021/09/19 03:37:14;;;;;;;7.12;2.72;;;;;;;13.40;81.53;98622.55;1723652;82;21059;-70
2021/09/19 03:39:42;;;;;;;2.30;2.10;;;;;;;13.41;81.35;98621.37;1730618;82;21098;-71
2021/09/19 03:42:12;;;;;;;3.25;2.35;;;;;;;13.42;81.16;98626.33;1731099;82;21509;-69
2021/09/19 03:44:38;;;;;;;4.20;1.87;;;;;;;13.42;81.03;98621.61;1728431;82;21045;-70
2021/09/19 03:47:10;;;;;;;11.80;3.15;;;;;;;13.41;80.98;98619.20;1731719;82;21024;-69
2021/09/19 03:49:40;;;;;;;6.58;2.58;;;;;;;13.39;81.03;98618.97;1730025;82;21050;-70
2021/09/19 03:52:10;;;;;;;3.33;2.15;;;;;;;13.40;81.26;98622.55;1729951;82;40060;-69
2021/09/19 03:54:39;;;;;;;3.22;2.08;;;;;;;13.39;81.37;98613.43;1730578;82;21087;-70
2021/09/19 03:57:09;;;;;;;3.72;2.27;;;;;;;13.42;81.31;98613.87;1728054;82;21032;-70
2021/09/19 03:59:38;;;;;;;8.58;2.10;;;;;;;13.42;81.17;98619.41;1729780;81;21079;-70
2021/09/19 04:02:07;;;;;;;5.15;2.30;;;;;;;13.38;81.18;98611.84;1727399;82;21008;-70
2021/09/19 04:04:37;;;;;;;8.28;1.90;;;;;;;13.37;81.10;98612.98;1727177;81;21100;-69
2021/09/19 04:07:05;;;;;;;3.85;1.22;;;;;;;13.37;81.08;98613.59;1728236;82;21014;-70
2021/09/19 04:09:34;;;;;;;6.78;1.75;;;;;;;13.37;80.78;98615.75;1729132;82;21044;-70
2021/09/19 04:12:02;;;;;;;4.62;1.30;;;;;;;13.37;80.65;98619.91;1721618;82;21032;-69
2021/09/19 04:14:34;;;;;;;1.87;1.30;;;;;;;13.37;80.58;98618.52;1724375;82;21076;-70
2021/09/19 04:17:04;;;;;;;5.03;1.50;;;;;;;13.37;80.54;98619.91;1724851;82;21038;-72
2021/09/19 04:19:38;;;;;;;3.42;1.32;;;;;;;13.38;80.37;98624.86;1728103;82;20963;-71
2021/09/19 04:22:06;;;;;;;2.33;1.60;;;;;;;13.37;80.24;98624.05;1700357;82;21003;-71
2021/09/19 04:24:34;;;;;;;6.47;1.50;;;;;;;13.37;80.19;98628.80;1730528;82;21048;-71
2021/09/19 04:27:00;;;;;;;2.35;1.57;;;;;;;13.34;80.25;98626.16;1738274;82;21072;-70
2021/09/19 04:29:29;;;;;;;4.17;1.65;;;;;;;13.33;80.13;98616.27;1794260;79;21497;-70
2021/09/19 04:31:59;;;;;;;2.55;1.40;;;;;;;13.33;80.11;98617.66;1797711;79;20962;-71
2021/09/19 04:34:27;;;;;;;5.45;1.72;;;;;;;13.25;80.10;98618.09;1732313;81;21052;-70
2021/09/19 04:36:54;;;;;;;2.87;1.50;;;;;;;13.21;80.27;98611.66;1745796;81;21082;-70
2021/09/19 04:39:22;;;;;;;4.60;1.55;;;;;;;13.18;80.56;98617.91;1750066;81;21039;-72
2021/09/19 04:41:53;;;;;;;2.72;1.80;;;;;;;13.18;80.75;98612.95;1794853;79;21459;-72
2021/09/19 04:44:24;;;;;;;4.10;1.65;;;;;;;13.17;80.93;98613.52;1789119;79;20966;-71
2021/09/19 04:46:50;;;;;;;4.45;2.00;;;;;;;13.18;81.10;98618.48;1793835;78;21056;-71
2021/09/19 04:49:21;;;;;;;2.80;1.65;;;;;;;13.20;81.27;98621.13;1791082;79;20973;-71
2021/09/19 04:51:49;;;;;;;4.70;1.80;;;;;;;13.24;81.42;98619.80;1765235;79;21032;-72
2021/09/19 04:54:17;;;;;;;4.05;1.60;;;;;;;13.27;81.48;98619.11;1799892;79;21405;-70
2021/09/19 04:56:44;;;;;;;3.83;1.70;;;;;;;13.31;81.57;98619.16;1800694;79;20984;-70
2021/09/19 04:59:12;;;;;;;5.37;1.90;;;;;;;13.34;81.47;98619.84;1797763;79;21528;-71
2021/09/19 05:01:40;;;;;;;3.65;1.98;;;;;;;13.38;81.50;98615.18;1797801;79;21022;-70
2021/09/19 05:04:08;;;;;;;2.35;1.65;;;;;;;13.41;81.60;98618.60;1766142;79;20985;-71
2021/09/19 05:06:36;;;;;;;2.90;2.10;;;;;;;13.46;81.45;98618.92;1796739;79;21151;-72
2021/09/19 05:09:02;;;;;;;2.45;1.57;;;;;;;13.46;81.26;98616.16;1749940;81;21518;-70
2021/09/19 05:11:30;;;;;;;3.83;2.00;;;;;;;13.46;81.38;98610.62;1792805;79;21006;-71
2021/09/19 05:13:57;;;;;;;4.12;2.00;;;;;;;13.50;81.25;98617.02;1797962;79;21040;-71
2021/09/19 05:16:24;;;;;;;2.70;1.75;;;;;;;13.52;81.14;98620.27;1796395;79;21065;-70
2021/09/19 05:18:51;;;;;;;6.80;2.02;;;;;;;13.53;81.10;98616.92;1797104;79;21024;-71
2021/09/19 05:21:19;;;;;;;3.40;1.67;;;;;;;13.53;81.09;98620.47;1798109;79;20957;-70
2021/09/19 05:23:47;;;;;;;4.08;1.62;;;;;;;13.56;81.00;98625.28;1797616;79;21009;-70
2021/09/19 05:26:14;;;;;;;4.08;2.30;;;;;;;13.58;80.79;98624.94;1797012;79;21024;-70
2021/09/19 05:28:42;;;;;;;3.77;2.77;;;;;;;13.61;80.60;98629.75;1795782;79;21295;-71
2021/09/19 05:31:12;;;;;;;3.62;2.45;;;;;;;13.62;80.31;98632.15;1764982;79;21081;-69
2021/09/19 05:33:41;;;;;;;3.83;2.58;;;;;;;13.63;80.17;98628.20;1767179;80;21015;-70
2021/09/19 05:36:09;;;;;;;4.55;2.42;;;;;;;13.63;80.21;98624.05;1778837;79;21016;-71
2021/09/19 05:38:40;;;;;;;4.87;3.10;;;;;;;13.63;80.19;98628.20;1784600;78;21040;-70
2021/09/19 05:41:09;;;;;;;2.80;2.10;;;;;;;13.63;80.17;98628.20;1771107;80;21067;-72
2021/09/19 05:43:38;;;;;;;5.60;3.17;;;;;;;13.65;80.00;98624.30;1772581;80;21814;-71
2021/09/19 05:46:10;;;;;;;3.47;2.60;;;;;;;13.66;79.91;98618.97;1785844;78;21032;-71
2021/09/19 05:48:41;;;;;;;3.20;2.25;;;;;;;13.67;79.87;98631.05;1759792;79;21075;-72
2021/09/19 05:51:11;;;;;;;2.87;2.15;;;;;;;13.68;79.79;98624.95;1785816;79;21061;-67
2021/09/19 05:53:41;;;;;;;3.72;1.90;;;;;;;13.70;79.90;98628.16;1796406;79;21000;-70
2021/09/19 05:56:09;;;;;;;1.80;1.40;;;;;;;13.71;79.94;98618.68;1794321;79;21076;-69
2021/09/19 05:58:37;;;;;;;2.87;1.77;;;;;;;13.69;80.03;98609.36;1798445;79;21059;-69
2021/09/19 06:01:05;;;;;;;2.55;1.70;;;;;;;13.72;80.11;98615.55;1745513;81;21023;-70
2021/09/19 06:03:35;;;;;;;2.70;1.35;;;;;;;13.72;80.00;98611.39;1748768;81;21071;-69
2021/09/19 06:06:11;;;;;;;;;;;;;;;13.77;80.04;98610.30;1734380;81;21058;-70
2021/09/19 06:08:44;;;;;;;2.70;1.35;;;;;;;13.80;80.05;98613.72;1725879;83;21170;-70
2021/09/19 06:11:13;;;;;;;;;;;;;;;13.82;80.06;98603.08;1720593;82;21031;-70
2021/09/19 06:13:43;;;;;;;2.90;1.40;;;;;;;13.90;80.38;98605.43;1730925;82;20152;-70
2021/09/19 06:16:13;;;;;;;2.83;1.50;;;;;;;13.97;80.47;98605.55;1712677;82;21032;-70
2021/09/19 06:18:40;;;;;;;2.30;1.47;;;;;;;14.07;80.25;98606.14;1704627;82;21524;-70
2021/09/19 06:21:06;;;;;;;2.08;1.32;;;;;;;14.15;80.17;98601.53;1720381;82;21078;-70
2021/09/19 06:23:39;;;;;;;2.37;2.15;;;;;;;14.24;80.09;98604.88;1729054;82;21558;-70
2021/09/19 06:26:06;;;;;;;2.40;1.77;;;;;;;14.30;79.96;98610.33;1724807;82;21533;-70
2021/09/19 06:28:32;;;;;;;2.58;2.15;;;;;;;14.40;79.51;98605.36;1713576;82;21494;-70
2021/09/19 06:31:01;;;;;;;3.42;2.30;;;;;;;14.45;79.03;98606.45;1738397;82;21051;-70
2021/09/19 06:33:28;;;;;;;3.20;2.25;;;;;;;14.49;78.86;98607.30;1737237;82;21128;-70
2021/09/19 06:35:55;;;;;;;3.05;2.30;;;;;;;14.52;78.71;98605.16;1737642;81;21057;-72
2021/09/19 06:38:23;;;;;;;2.30;1.92;;;;;;;14.53;78.41;98609.55;1738123;81;21498;-72
2021/09/19 06:40:52;;;;;;;1.62;1.50;;;;;;;14.53;78.02;98608.17;1737158;82;21090;-72
2021/09/19 06:43:20;;;;;;;1.35;1.25;;;;;;;14.52;77.86;98607.16;1737706;82;21097;-71
2021/09/19 06:45:48;;;;;;;3.80;1.55;;;;;;;14.50;77.75;98609.48;1733173;82;21470;-71
2021/09/19 06:48:18;;;;;;;1.60;1.50;;;;;;;14.46;77.72;98604.69;1737589;81;21102;-71
2021/09/19 06:51:19;;;;;;;2.47;1.80;;;;;;;14.45;77.65;98604.45;1737560;82;21050;-73
2021/09/19 06:54:04;;;;;;;2.20;1.40;;;;;;;14.43;77.68;98601.24;1727742;82;21038;-71
2021/09/19 06:56:31;;;;;;;2.50;1.55;;;;;;;14.36;77.66;98602.52;1736711;82;21077;-70
2021/09/19 06:58:59;;;;;;;2.12;1.60;;;;;;;14.33;77.98;98595.73;1737105;82;22021;-71
2021/09/19 07:01:25;;;;;;;3.92;1.92;;;;;;;14.35;78.30;98592.02;1737214;82;21616;-70
2021/09/19 07:03:54;;;;;;;2.22;2.02;;;;;;;14.40;78.83;98585.36;1741066;81;21686;-71
2021/09/19 07:06:24;;;;;;;3.05;2.00;;;;;;;14.50;78.97;98590.09;1719082;81;21039;-71
2021/09/19 07:08:56;;;;;;;1.77;1.50;;;;;;;14.58;79.01;98592.62;1751262;81;21020;-72
2021/09/19 07:11:28;;;;;;;2.17;1.52;;;;;;;14.67;78.98;98587.41;1754110;81;20976;-70
2021/09/19 07:13:58;;;;;;;2.30;1.72;;;;;;;14.75;78.63;98586.34;1716253;82;21034;-70
2021/09/19 07:16:30;;;;;;;2.47;1.35;;;;;;;14.85;78.27;98586.33;1736080;82;21031;-72
2021/09/19 07:22:51;;;;;;;3.10;1.47;;;;;;;15.05;77.42;98585.64;1741983;81;21101;-72
2021/09/19 07:26:04;;;;;;;3.00;2.00;;;;;;;15.14;76.77;98587.34;1754332;81;20992;-68
2021/09/19 07:31:28;;;;;;;2.47;1.90;;;;;;;15.38;76.46;98587.50;1735067;82;21586;-68
2021/09/19 07:33:55;;;;;;;3.15;1.95;;;;;;;15.51;76.16;98589.45;1749200;81;21003;-70
2021/09/19 07:36:33;;;;;;;4.55;1.72;;;;;;;15.62;75.77;98581.27;1750315;81;22192;-70
2021/09/19 07:39:06;;;;;;;3.40;2.00;;;;;;;15.68;75.36;98583.91;1748954;81;21031;-69
2021/09/19 07:41:36;;;;;;;4.45;2.02;;;;;;;15.74;75.04;98591.33;1751315;81;21101;-70
2021/09/19 07:44:03;;;;;;;2.87;2.12;;;;;;;15.80;74.73;98585.64;1748955;81;21521;-70
2021/09/19 07:46:30;;;;;;;3.50;2.00;;;;;;;15.86;74.66;98589.47;1752072;81;21070;-70
2021/09/19 07:48:57;;;;;;;3.62;2.15;;;;;;;15.90;74.33;98590.33;1757594;81;21044;-69
2021/09/19 07:51:26;;;;;;;7.92;2.85;;;;;;;15.91;73.94;98587.75;1702891;82;21052;-72
2021/09/19 07:53:56;;;;;;;3.90;2.20;;;;;;;15.92;73.97;98587.95;1742877;82;21016;-70
2021/09/19 07:56:23;;;;;;;6.03;3.10;;;;;;;15.88;73.69;98586.52;1744610;82;21028;-70
2021/09/19 07:58:49;;;;;;;4.85;3.00;;;;;;;15.84;73.81;98598.77;1743190;82;21036;-73
2021/09/19 08:01:16;;;;;;;4.97;3.10;;;;;;;15.78;73.87;98598.31;1710537;82;21036;-71
2021/09/19 08:03:48;;;;;;;4.08;2.58;;;;;;;15.71;74.21;98596.25;1704083;83;21000;-71
2021/09/19 08:06:18;;;;;;;3.67;3.25;;;;;;;15.64;74.47;98596.97;1706855;83;21039;-70
2021/09/19 08:08:44;;;;;;;7.20;3.50;;;;;;;15.59;74.97;98597.30;1727685;82;21016;-71
2021/09/19 08:11:19;;;;;;;4.20;3.80;;;;;;;15.54;75.17;98595.62;1733882;82;21090;-71
2021/09/19 08:13:56;;;;;;;5.12;4.10;;;;;;;15.51;75.32;98599.73;1724110;83;20999;-71
2021/09/19 08:16:20;;;;;;;5.80;3.92;;;;;;;15.44;75.63;98599.86;1726372;83;21746;-73
2021/09/19 08:18:52;;;;;;;5.87;4.67;;;;;;;15.39;75.82;98596.02;1725939;83;20987;-70
2021/09/19 08:21:21;;;;;;;5.65;4.17;;;;;;;15.37;76.12;98593.42;1735533;82;21077;-72
2021/09/19 08:23:49;;;;;;;4.85;3.92;;;;;;;15.36;76.38;98589.03;1730308;82;21528;-71
2021/09/19 08:26:18;;;;;;;6.33;4.37;;;;;;;15.34;76.64;98589.41;1726621;83;21067;-71
2021/09/19 08:28:48;;;;;;;6.53;5.00;;;;;;;15.35;77.01;98586.87;1733835;82;21032;-72
2021/09/19 08:31:17;;;;;;;5.12;4.17;;;;;;;15.33;77.27;98584.47;1730761;82;20995;-71
2021/09/19 08:33:43;;;;;;;6.58;4.50;;;;;;;15.32;77.61;98582.85;1729946;82;21021;-70
2021/09/19 08:36:09;;;;;;;5.25;4.62;;;;;;;15.35;77.90;98581.89;1729798;82;21027;-71
2021/09/19 08:38:37;;;;;;;6.42;3.95;;;;;;;15.37;78.15;98573.39;1731888;82;21603;-70
2021/09/19 08:41:08;;;;;;;7.60;4.30;;;;;;;15.41;78.30;98569.28;1727234;82;21763;-71
2021/09/19 08:43:40;;;;;;;6.12;4.15;;;;;;;15.46;78.74;98574.50;1730645;82;20999;-71
2021/09/19 08:46:09;;;;;;;8.60;4.67;;;;;;;15.51;78.96;98571.98;1731343;82;21090;-73
2021/09/19 08:48:35;;;;;;;6.80;4.70;;;;;;;15.58;79.10;98566.53;1735093;82;21117;-70
2021/09/19 08:51:09;;;;;;;5.50;4.92;;;;;;;15.67;79.21;98565.66;1691407;84;21017;-70
2021/09/19 08:53:35;;;;;;;7.87;4.90;;;;;;;15.79;79.17;98563.80;1699306;82;21516;-70
2021/09/19 08:56:04;;;;;;;5.70;5.10;;;;;;;15.91;79.27;98551.64;1728492;82;21016;-70
2021/09/19 08:58:39;;;;;;;5.10;4.60;;;;;;;16.03;79.05;98553.38;1730822;82;21056;-70
2021/09/19 09:01:08;;;;;;;5.10;4.42;;;;;;;16.15;78.70;98555.09;1728643;83;21053;-70
2021/09/19 09:03:40;;;;;;;8.58;4.95;;;;;;;16.23;78.50;98558.73;1707541;83;21062;-71
2021/09/19 09:06:10;;;;;;;6.20;4.85;;;;;;;16.27;77.94;98555.41;1684686;83;21510;-69
2021/09/19 09:08:40;;;;;;;6.87;4.72;;;;;;;16.28;77.68;98552.24;1751040;80;21520;-71
2021/09/19 09:11:10;;;;;;;7.65;5.10;;;;;;;16.30;77.87;98551.28;1719085;82;21075;-71
2021/09/19 09:13:41;;;;;;;5.95;4.90;;;;;;;16.36;77.60;98554.48;1738616;82;21012;-71
2021/09/19 09:16:17;;;;;;;6.03;4.87;;;;;;;16.45;77.72;98550.58;1717553;82;20989;-71
2021/09/19 09:18:53;;;;;;;5.67;4.92;;;;;;;16.57;77.64;98549.50;1737939;80;21035;-72
2021/09/19 09:21:29;;;;;;;5.03;4.53;;;;;;;16.69;77.31;98545.62;1726194;81;21009;-73
2021/09/19 09:24:04;;;;;;;6.33;4.10;;;;;;;16.79;77.26;98547.68;1740977;81;21630;-70
2021/09/19 09:26:37;;;;;;;5.03;4.45;;;;;;;16.95;77.05;98550.19;1749847;81;21063;-71
2021/09/19 09:29:17;;;;;;;8.35;5.42;;;;;;;17.14;76.87;98544.17;1772735;80;21088;-69
2021/09/19 09:31:54;;;;;;;5.85;5.00;;;;;;;17.34;75.99;98541.89;1807872;79;21187;-70
2021/09/19 09:34:26;;;;;;;6.95;4.65;;;;;;;17.48;75.47;98541.75;1792602;79;21072;-72
2021/09/19 09:37:16;;;;;;;9.53;4.92;;;;;;;17.60;75.36;98541.42;1795294;79;21012;-70
2021/09/19 09:39:44;;;;;;;8.58;4.25;;;;;;;17.71;75.18;98540.63;1720023;82;21473;-72
2021/09/19 09:42:20;;;;;;;6.37;4.62;;;;;;;17.81;74.92;98544.05;1731667;79;21025;-71
2021/09/19 09:44:52;;;;;;;9.65;4.78;;;;;;;17.87;74.14;98535.53;1758755;81;20984;-72
2021/09/19 09:47:25;;;;;;;6.08;4.83;;;;;;;17.89;73.31;98533.74;1770960;81;21466;-71
2021/09/19 09:50:01;;;;;;;5.95;4.42;;;;;;;17.85;73.30;98530.14;1770247;81;21528;-72
2021/09/19 09:52:35;;;;;;;6.22;4.75;;;;;;;17.79;72.77;98524.17;1708886;83;21039;-70
2021/09/19 09:55:10;;;;;;;5.55;4.37;;;;;;;17.71;72.50;98530.30;1708480;83;21532;-72
2021/09/19 09:58:08;;;;;;;5.42;4.40;;;;;;;17.59;72.11;98523.68;1744677;81;21049;-72
2021/09/19 10:00:39;;;;;;;6.53;5.08;;;;;;;17.43;72.44;98524.84;1742477;81;21060;-69
2021/09/19 10:03:05;;;;;;;8.45;5.60;;;;;;;17.31;73.05;98540.48;1759256;81;21037;-72
2021/09/19 10:05:35;;;;;;;9.93;5.70;;;;;;;17.21;73.87;98548.40;1813191;78;21485;-71
2021/09/19 10:08:02;;;;;;;11.05;5.37;;;;;;;17.08;74.47;98549.85;1803126;79;20990;-71
2021/09/19 10:10:33;;;;;;;7.35;5.20;;;;;;;16.94;75.00;98551.97;1795695;79;20990;-72
2021/09/19 10:13:02;;;;;;;5.87;4.80;;;;;;;16.80;75.30;98550.69;1795734;79;21088;-70
2021/09/19 10:15:32;;;;;;;6.47;4.72;;;;;;;16.71;75.89;98558.55;1795083;79;20993;-71
2021/09/19 10:18:02;;;;;;;6.10;5.47;;;;;;;16.61;76.78;98549.75;1795877;79;20966;-72
2021/09/19 10:20:44;;;;;;;5.45;4.78;;;;;;;16.59;77.46;98549.91;1776312;79;21042;-70
2021/09/19 10:23:20;;;;;;;8.38;4.17;;;;;;;16.55;77.85;98553.47;1791846;79;21033;-71
2021/09/19 10:26:07;;;;;;;4.95;4.45;;;;;;;16.49;76.80;98554.20;1789414;79;21451;-71
2021/09/19 10:28:42;;;;;;;6.75;4.92;;;;;;;16.39;77.16;98559.27;1774407;79;21053;-71
2021/09/19 10:31:28;;;;;;;4.15;3.08;;;;;;;16.36;77.75;98556.48;1742588;81;21070;-73
2021/09/19 10:34:06;;;;;;;2.75;2.42;;;;;;;16.31;77.07;98563.17;1747277;81;20990;-71
2021/09/19 10:36:53;;;;;;;3.52;1.62;;;;;;;16.20;76.77;98561.70;1715089;82;21020;-70
2021/09/19 10:39:28;;;;;;;1.85;1.40;;;;;;;16.15;76.85;98562.84;1711869;82;21106;-71
2021/09/19 10:42:35;;;;;;;2.02;1.40;;;;;;;16.12;76.78;98566.98;1715057;82;20999;-71
2021/09/19 10:45:09;;;;;;;2.12;1.05;;;;;;;16.06;76.54;98567.31;1751056;81;21010;-70
2021/09/19 10:47:53;;;;;;;1.32;1.00;;;;;;;15.96;75.95;98571.33;1729475;82;21006;-71
2021/09/19 10:50:28;;;;;;;1.10;1.00;;;;;;;15.89;75.86;98575.63;1730298;82;21016;-70
2021/09/19 10:53:21;;;;;;;1.05;0.93;;;;;;;15.82;76.27;98586.65;1722077;82;21014;-70
2021/09/19 10:56:04;;;;;;;1.45;0.95;;;;;;;15.79;76.34;98579.89;1705299;82;21505;-72
2021/09/19 10:58:46;;;;;;;2.47;1.10;;;;;;;15.72;75.74;98583.95;1727721;82;21051;-71
2021/09/19 11:01:26;;;;;;;2.75;1.15;;;;;;;15.61;75.88;98583.03;1728360;82;21077;-70
2021/09/19 11:04:15;;;;;;;1.30;1.00;;;;;;;15.55;75.89;98584.75;1729195;82;21027;-72
2021/09/19 11:06:41;;;;;;;0.65;0.65;;;;;;;15.52;75.03;98583.31;1729868;82;27469;-70
2021/09/19 11:09:28;;;;;;;1.25;0.80;;;;;;;15.43;75.27;98590.53;1698489;83;21058;-72
2021/09/19 11:12:22;;;;;;;1.52;0.98;;;;;;;15.40;74.90;98591.28;1693618;83;21054;-71
2021/09/19 11:14:58;;;;;;;1.45;1.07;;;;;;;15.34;75.09;98588.02;1784260;79;21055;-71
2021/09/19 11:17:29;;;;;;;2.45;1.22;;;;;;;15.30;74.33;98589.36;1798591;79;21115;-70
2021/09/19 11:20:18;;;;;;;1.90;1.00;;;;;;;15.27;74.54;98589.33;1798445;79;21128;-71
2021/09/19 11:22:52;;;;;;;2.10;0.90;;;;;;;15.21;74.25;98590.23;1791589;79;21502;-71
2021/09/19 11:25:21;;;;;;;1.65;0.62;;;;;;;15.18;74.67;98591.77;1799250;79;21009;-70
2021/09/19 11:27:55;;;;;;;1.10;0.90;;;;;;;15.12;74.10;98594.66;1793731;79;21024;-69
2021/09/19 11:30:28;;;;;;;0.62;0.60;;;;;;;15.02;73.60;98594.72;1796479;79;21896;-70
2021/09/19 11:32:54;;;;;;;0.72;0.55;;;;;;;14.93;74.00;98594.97;1752763;80;21033;-71
2021/09/19 11:35:22;;;;;;;1.87;0.75;;;;;;;14.84;73.94;98595.83;1794910;79;20987;-70
2021/09/19 11:38:00;;;;;;;4.00;0.90;;;;;;;14.71;73.96;98591.02;1762273;79;21083;-72
2021/09/19 11:40:28;;;;;;;1.15;0.85;;;;;;;14.64;74.99;98590.32;1799203;79;21016;-73
2021/09/19 11:43:00;;;;;;;2.30;0.82;;;;;;;14.59;75.25;98587.28;1737679;81;21166;-71
2021/09/19 11:45:33;;;;;;;0.90;0.80;;;;;;;14.55;75.29;98589.17;1683874;82;21519;-70
2021/09/19 11:48:01;;;;;;;1.92;1.10;;;;;;;14.50;75.58;98588.70;1729843;82;21048;-70
2021/09/19 11:50:32;;;;;;;0.98;0.82;;;;;;;14.49;76.19;98589.28;1729816;82;21511;-71
2021/09/19 11:53:06;;;;;;;1.30;0.82;;;;;;;14.48;76.37;98594.62;1732315;82;21000;-70
2021/09/19 11:55:33;;;;;;;1.15;1.00;;;;;;;14.49;76.77;98590.66;1719614;82;21040;-70
2021/09/19 11:58:00;;;;;;;1.55;1.05;;;;;;;14.50;77.00;98590.09;1708592;82;21078;-72